sensor_id;sensor_type;location;lat;lon;timestamp;temperature;humidity
6333;DHT22;3199;49.102;8.856;2024-03-02T00:01:04;6.10;99.90
6333;DHT22;3199;49.102;8.856;2024-03-02T00:03:29;6.10;99.90
6333;DHT22;3199;49.102;8.856;2024-03-02T00:05:55;6.00;99.90
6333;DHT22;3199;49.102;8.856;2024-03-02T00:08:25;6.10;99.90
6333;DHT22;3199;49.102;8.856;2024-03-02T00:10:57;6.10;99.90
6333;DHT22;3199;49.102;8.856;2024-03-02T00:13:23;6.00;99.90
6333;DHT22;3199;49.102;8.856;2024-03-02T00:15:53;6.00;99.90
6333;DHT22;3199;49.102;8.856;2024-03-02T00:18:24;6.00;99.90
6333;DHT22;3199;49.102;8.856;2024-03-02T00:20:56;6.00;99.90
6333;DHT22;3199;49.102;8.856;2024-03-02T00:23:23;5.90;99.90
6333;DHT22;3199;49.102;8.856;2024-03-02T00:25:52;5.90;99.90
6333;DHT22;3199;49.102;8.856;2024-03-02T00:33:36;5.90;99.90
6333;DHT22;3199;49.102;8.856;2024-03-02T00:36:03;5.90;99.90
6333;DHT22;3199;49.102;8.856;2024-03-02T00:38:30;5.90;99.90
6333;DHT22;3199;49.102;8.856;2024-03-02T00:41:03;5.80;99.90
6333;DHT22;3199;49.102;8.856;2024-03-02T00:43:47;5.80;99.90
6333;DHT22;3199;49.102;8.856;2024-03-02T00:46:18;5.80;99.90
6333;DHT22;3199;49.102;8.856;2024-03-02T00:48:57;5.80;99.90
6333;DHT22;3199;49.102;8.856;2024-03-02T00:51:24;5.80;99.90
6333;DHT22;3199;49.102;8.856;2024-03-02T00:53:52;5.80;99.90
6333;DHT22;3199;49.102;8.856;2024-03-02T00:56:20;5.80;99.90
6333;DHT22;3199;49.102;8.856;2024-03-02T00:58:46;5.80;99.90
6333;DHT22;3199;49.102;8.856;2024-03-02T01:01:12;5.80;99.90
6333;DHT22;3199;49.102;8.856;2024-03-02T01:03:37;5.70;99.90
6333;DHT22;3199;49.102;8.856;2024-03-02T01:06:04;5.70;99.90
6333;DHT22;3199;49.102;8.856;2024-03-02T01:08:30;5.70;99.90
6333;DHT22;3199;49.102;8.856;2024-03-02T01:10:55;5.70;99.90
6333;DHT22;3199;49.102;8.856;2024-03-02T01:13:22;5.60;99.90
6333;DHT22;3199;49.102;8.856;2024-03-02T01:15:49;5.60;99.90
6333;DHT22;3199;49.102;8.856;2024-03-02T01:18:14;5.60;99.90
6333;DHT22;3199;49.102;8.856;2024-03-02T01:20:40;5.60;99.90
6333;DHT22;3199;49.102;8.856;2024-03-02T01:23:05;5.60;99.90
6333;DHT22;3199;49.102;8.856;2024-03-02T01:25:31;5.60;99.90
6333;DHT22;3199;49.102;8.856;2024-03-02T01:27:56;5.50;99.90
6333;DHT22;3199;49.102;8.856;2024-03-02T01:30:22;5.50;99.90
6333;DHT22;3199;49.102;8.856;2024-03-02T01:32:47;5.50;99.90
6333;DHT22;3199;49.102;8.856;2024-03-02T01:35:13;5.40;99.90
6333;DHT22;3199;49.102;8.856;2024-03-02T01:37:40;5.40;99.90
6333;DHT22;3199;49.102;8.856;2024-03-02T01:40:06;5.40;99.90
6333;DHT22;3199;49.102;8.856;2024-03-02T01:42:38;5.40;99.90
6333;DHT22;3199;49.102;8.856;2024-03-02T01:45:05;5.30;99.90
6333;DHT22;3199;49.102;8.856;2024-03-02T01:47:31;5.30;99.90
6333;DHT22;3199;49.102;8.856;2024-03-02T01:49:57;5.20;99.90
6333;DHT22;3199;49.102;8.856;2024-03-02T01:52:23;5.20;99.90
6333;DHT22;3199;49.102;8.856;2024-03-02T01:54:49;5.20;99.90
6333;DHT22;3199;49.102;8.856;2024-03-02T01:57:15;5.10;99.90
6333;DHT22;3199;49.102;8.856;2024-03-02T01:59:41;5.10;99.90
6333;DHT22;3199;49.102;8.856;2024-03-02T02:02:06;5.10;99.90
6333;DHT22;3199;49.102;8.856;2024-03-02T02:04:33;5.00;99.90
6333;DHT22;3199;49.102;8.856;2024-03-02T02:06:59;5.00;99.90
6333;DHT22;3199;49.102;8.856;2024-03-02T02:09:24;5.00;99.90
6333;DHT22;3199;49.102;8.856;2024-03-02T02:11:51;4.90;99.90
6333;DHT22;3199;49.102;8.856;2024-03-02T02:14:16;4.90;99.90
6333;DHT22;3199;49.102;8.856;2024-03-02T02:16:42;4.90;99.90
6333;DHT22;3199;49.102;8.856;2024-03-02T02:19:08;4.90;99.90
6333;DHT22;3199;49.102;8.856;2024-03-02T02:21:33;4.80;99.90
6333;DHT22;3199;49.102;8.856;2024-03-02T02:23:59;4.80;99.90
6333;DHT22;3199;49.102;8.856;2024-03-02T02:26:24;4.80;99.90
6333;DHT22;3199;49.102;8.856;2024-03-02T02:28:50;4.80;99.90
6333;DHT22;3199;49.102;8.856;2024-03-02T02:31:16;4.80;99.90
6333;DHT22;3199;49.102;8.856;2024-03-02T02:33:42;4.80;99.90
6333;DHT22;3199;49.102;8.856;2024-03-02T02:36:08;4.80;99.90
6333;DHT22;3199;49.102;8.856;2024-03-02T02:38:38;4.70;99.90
6333;DHT22;3199;49.102;8.856;2024-03-02T02:41:05;4.80;99.90
6333;DHT22;3199;49.102;8.856;2024-03-02T02:43:31;4.70;99.90
6333;DHT22;3199;49.102;8.856;2024-03-02T02:45:56;4.70;99.90
6333;DHT22;3199;49.102;8.856;2024-03-02T02:48:22;4.70;99.90
6333;DHT22;3199;49.102;8.856;2024-03-02T02:50:47;4.70;99.90
6333;DHT22;3199;49.102;8.856;2024-03-02T02:53:13;4.70;99.90
6333;DHT22;3199;49.102;8.856;2024-03-02T02:55:39;4.60;99.90
6333;DHT22;3199;49.102;8.856;2024-03-02T02:58:09;4.60;99.90
6333;DHT22;3199;49.102;8.856;2024-03-02T03:00:34;4.60;99.90
6333;DHT22;3199;49.102;8.856;2024-03-02T03:03:01;4.60;99.90
6333;DHT22;3199;49.102;8.856;2024-03-02T03:05:27;4.50;99.90
6333;DHT22;3199;49.102;8.856;2024-03-02T03:07:53;4.60;99.90
6333;DHT22;3199;49.102;8.856;2024-03-02T03:10:18;4.50;99.90
6333;DHT22;3199;49.102;8.856;2024-03-02T03:12:46;4.50;99.90
6333;DHT22;3199;49.102;8.856;2024-03-02T03:15:12;4.40;99.90
6333;DHT22;3199;49.102;8.856;2024-03-02T03:17:37;4.40;99.90
6333;DHT22;3199;49.102;8.856;2024-03-02T03:20:03;4.40;99.90
6333;DHT22;3199;49.102;8.856;2024-03-02T03:22:30;4.40;99.90
6333;DHT22;3199;49.102;8.856;2024-03-02T03:24:56;4.40;99.90
6333;DHT22;3199;49.102;8.856;2024-03-02T03:27:22;4.30;99.90
6333;DHT22;3199;49.102;8.856;2024-03-02T03:29:47;4.30;99.90
6333;DHT22;3199;49.102;8.856;2024-03-02T03:32:13;4.30;99.90
6333;DHT22;3199;49.102;8.856;2024-03-02T03:34:39;4.30;99.90
6333;DHT22;3199;49.102;8.856;2024-03-02T03:37:05;4.30;99.90
6333;DHT22;3199;49.102;8.856;2024-03-02T03:39:31;4.20;99.90
6333;DHT22;3199;49.102;8.856;2024-03-02T03:41:56;4.20;99.90
6333;DHT22;3199;49.102;8.856;2024-03-02T03:44:22;4.20;99.90
6333;DHT22;3199;49.102;8.856;2024-03-02T03:46:47;4.20;99.90
6333;DHT22;3199;49.102;8.856;2024-03-02T03:49:13;4.20;99.90
6333;DHT22;3199;49.102;8.856;2024-03-02T03:51:38;4.20;99.90
6333;DHT22;3199;49.102;8.856;2024-03-02T03:54:04;4.20;99.90
6333;DHT22;3199;49.102;8.856;2024-03-02T03:56:29;4.20;99.90
6333;DHT22;3199;49.102;8.856;2024-03-02T03:58:55;4.20;99.90
6333;DHT22;3199;49.102;8.856;2024-03-02T04:01:20;4.20;99.90
6333;DHT22;3199;49.102;8.856;2024-03-02T04:03:48;4.20;99.90
6333;DHT22;3199;49.102;8.856;2024-03-02T04:06:13;4.20;99.90
6333;DHT22;3199;49.102;8.856;2024-03-02T04:08:41;4.20;99.90
6333;DHT22;3199;49.102;8.856;2024-03-02T04:11:06;4.20;99.90
6333;DHT22;3199;49.102;8.856;2024-03-02T04:13:33;4.20;99.90
6333;DHT22;3199;49.102;8.856;2024-03-02T04:15:58;4.10;99.90
6333;DHT22;3199;49.102;8.856;2024-03-02T04:18:24;4.10;99.90
6333;DHT22;3199;49.102;8.856;2024-03-02T04:20:49;4.10;99.90
6333;DHT22;3199;49.102;8.856;2024-03-02T04:23:15;4.10;99.90
6333;DHT22;3199;49.102;8.856;2024-03-02T04:25:40;4.10;99.90
6333;DHT22;3199;49.102;8.856;2024-03-02T04:28:06;4.10;99.90
6333;DHT22;3199;49.102;8.856;2024-03-02T04:30:31;4.20;99.90
6333;DHT22;3199;49.102;8.856;2024-03-02T04:32:57;4.30;99.90
6333;DHT22;3199;49.102;8.856;2024-03-02T04:35:23;4.40;99.90
6333;DHT22;3199;49.102;8.856;2024-03-02T04:37:48;4.50;99.90
6333;DHT22;3199;49.102;8.856;2024-03-02T04:40:14;4.60;99.90
6333;DHT22;3199;49.102;8.856;2024-03-02T04:42:40;4.70;99.90
6333;DHT22;3199;49.102;8.856;2024-03-02T04:45:06;4.90;99.90
6333;DHT22;3199;49.102;8.856;2024-03-02T04:47:32;5.00;99.90
6333;DHT22;3199;49.102;8.856;2024-03-02T04:49:58;5.10;99.90
6333;DHT22;3199;49.102;8.856;2024-03-02T04:52:23;5.20;99.90
6333;DHT22;3199;49.102;8.856;2024-03-02T04:54:49;5.20;99.90
6333;DHT22;3199;49.102;8.856;2024-03-02T04:57:33;5.30;99.90
6333;DHT22;3199;49.102;8.856;2024-03-02T04:59:58;5.30;99.90
6333;DHT22;3199;49.102;8.856;2024-03-02T05:02:24;5.30;99.90
6333;DHT22;3199;49.102;8.856;2024-03-02T05:04:49;5.40;99.90
6333;DHT22;3199;49.102;8.856;2024-03-02T05:07:15;5.40;99.90
6333;DHT22;3199;49.102;8.856;2024-03-02T05:09:41;5.50;99.90
6333;DHT22;3199;49.102;8.856;2024-03-02T05:12:07;5.60;99.90
6333;DHT22;3199;49.102;8.856;2024-03-02T05:15:06;5.60;99.90
6333;DHT22;3199;49.102;8.856;2024-03-02T05:17:32;5.60;99.90
6333;DHT22;3199;49.102;8.856;2024-03-02T05:19:58;5.60;99.90
6333;DHT22;3199;49.102;8.856;2024-03-02T05:22:24;5.60;99.90
6333;DHT22;3199;49.102;8.856;2024-03-02T05:24:49;5.60;99.90
6333;DHT22;3199;49.102;8.856;2024-03-02T05:27:15;5.50;99.90
6333;DHT22;3199;49.102;8.856;2024-03-02T05:29:41;5.50;99.90
6333;DHT22;3199;49.102;8.856;2024-03-02T05:32:06;5.50;99.90
6333;DHT22;3199;49.102;8.856;2024-03-02T05:34:32;5.50;99.90
6333;DHT22;3199;49.102;8.856;2024-03-02T05:37:00;5.50;99.90
6333;DHT22;3199;49.102;8.856;2024-03-02T05:39:25;5.50;99.90
6333;DHT22;3199;49.102;8.856;2024-03-02T05:41:51;5.50;99.90
6333;DHT22;3199;49.102;8.856;2024-03-02T05:44:16;5.50;99.90
6333;DHT22;3199;49.102;8.856;2024-03-02T05:46:43;5.50;99.90
6333;DHT22;3199;49.102;8.856;2024-03-02T05:49:09;5.40;99.90
6333;DHT22;3199;49.102;8.856;2024-03-02T05:51:35;5.40;99.90
6333;DHT22;3199;49.102;8.856;2024-03-02T05:54:01;5.40;99.90
6333;DHT22;3199;49.102;8.856;2024-03-02T05:56:26;5.40;99.90
6333;DHT22;3199;49.102;8.856;2024-03-02T05:58:52;5.40;99.90
6333;DHT22;3199;49.102;8.856;2024-03-02T06:01:36;5.40;99.90
6333;DHT22;3199;49.102;8.856;2024-03-02T06:04:02;5.40;99.90
6333;DHT22;3199;49.102;8.856;2024-03-02T06:06:27;5.40;99.90
6333;DHT22;3199;49.102;8.856;2024-03-02T06:08:53;5.30;99.90
6333;DHT22;3199;49.102;8.856;2024-03-02T06:11:19;5.30;99.90
6333;DHT22;3199;49.102;8.856;2024-03-02T06:13:45;5.30;99.90
6333;DHT22;3199;49.102;8.856;2024-03-02T06:16:10;5.30;99.90
6333;DHT22;3199;49.102;8.856;2024-03-02T06:18:36;5.30;99.90
6333;DHT22;3199;49.102;8.856;2024-03-02T06:21:01;5.30;99.90
6333;DHT22;3199;49.102;8.856;2024-03-02T06:23:27;5.30;99.90
6333;DHT22;3199;49.102;8.856;2024-03-02T06:25:53;5.30;99.90
6333;DHT22;3199;49.102;8.856;2024-03-02T06:28:18;5.30;99.90
6333;DHT22;3199;49.102;8.856;2024-03-02T06:30:44;5.40;99.90
6333;DHT22;3199;49.102;8.856;2024-03-02T06:33:10;5.40;99.90
6333;DHT22;3199;49.102;8.856;2024-03-02T06:35:36;5.40;99.90
6333;DHT22;3199;49.102;8.856;2024-03-02T06:38:01;5.40;99.90
6333;DHT22;3199;49.102;8.856;2024-03-02T06:40:27;5.40;99.90
6333;DHT22;3199;49.102;8.856;2024-03-02T06:42:52;5.50;99.90
6333;DHT22;3199;49.102;8.856;2024-03-02T06:45:18;5.50;99.90
6333;DHT22;3199;49.102;8.856;2024-03-02T06:47:43;5.50;99.90
6333;DHT22;3199;49.102;8.856;2024-03-02T06:50:09;5.50;99.90
6333;DHT22;3199;49.102;8.856;2024-03-02T06:52:35;5.60;99.90
6333;DHT22;3199;49.102;8.856;2024-03-02T06:55:02;5.60;99.90
6333;DHT22;3199;49.102;8.856;2024-03-02T06:57:27;5.60;99.90
6333;DHT22;3199;49.102;8.856;2024-03-02T06:59:53;5.70;99.90
6333;DHT22;3199;49.102;8.856;2024-03-02T07:02:22;5.80;99.90
6333;DHT22;3199;49.102;8.856;2024-03-02T07:04:48;5.80;99.90
6333;DHT22;3199;49.102;8.856;2024-03-02T07:07:14;5.80;99.90
6333;DHT22;3199;49.102;8.856;2024-03-02T07:09:39;5.90;99.90
6333;DHT22;3199;49.102;8.856;2024-03-02T07:12:05;5.90;99.90
6333;DHT22;3199;49.102;8.856;2024-03-02T07:14:30;6.00;99.90
6333;DHT22;3199;49.102;8.856;2024-03-02T07:17:14;6.10;99.90
6333;DHT22;3199;49.102;8.856;2024-03-02T07:19:40;6.10;99.90
6333;DHT22;3199;49.102;8.856;2024-03-02T07:22:06;6.20;99.90
6333;DHT22;3199;49.102;8.856;2024-03-02T07:24:39;6.20;99.90
6333;DHT22;3199;49.102;8.856;2024-03-02T07:27:05;6.30;99.90
6333;DHT22;3199;49.102;8.856;2024-03-02T07:29:30;6.30;99.90
6333;DHT22;3199;49.102;8.856;2024-03-02T07:31:56;6.30;99.90
6333;DHT22;3199;49.102;8.856;2024-03-02T07:34:21;6.40;99.90
6333;DHT22;3199;49.102;8.856;2024-03-02T07:36:47;6.40;99.90
6333;DHT22;3199;49.102;8.856;2024-03-02T07:39:12;6.40;99.90
6333;DHT22;3199;49.102;8.856;2024-03-02T07:41:38;6.40;99.90
6333;DHT22;3199;49.102;8.856;2024-03-02T07:44:04;6.50;99.90
6333;DHT22;3199;49.102;8.856;2024-03-02T07:46:29;6.50;99.90
6333;DHT22;3199;49.102;8.856;2024-03-02T07:48:55;6.50;99.90
6333;DHT22;3199;49.102;8.856;2024-03-02T07:51:20;6.60;99.90
6333;DHT22;3199;49.102;8.856;2024-03-02T07:53:46;6.70;99.90
6333;DHT22;3199;49.102;8.856;2024-03-02T07:56:11;6.80;99.90
6333;DHT22;3199;49.102;8.856;2024-03-02T07:58:37;6.90;99.90
6333;DHT22;3199;49.102;8.856;2024-03-02T08:01:02;7.00;99.90
6333;DHT22;3199;49.102;8.856;2024-03-02T08:03:28;7.20;99.90
6333;DHT22;3199;49.102;8.856;2024-03-02T08:05:53;7.50;99.90
6333;DHT22;3199;49.102;8.856;2024-03-02T08:08:19;8.00;99.90
6333;DHT22;3199;49.102;8.856;2024-03-02T08:10:44;8.50;99.90
6333;DHT22;3199;49.102;8.856;2024-03-02T08:13:10;9.20;99.90
6333;DHT22;3199;49.102;8.856;2024-03-02T08:15:35;9.90;99.90
6333;DHT22;3199;49.102;8.856;2024-03-02T08:18:01;10.60;99.90
6333;DHT22;3199;49.102;8.856;2024-03-02T08:20:27;11.40;99.90
6333;DHT22;3199;49.102;8.856;2024-03-02T08:22:52;12.00;99.90
6333;DHT22;3199;49.102;8.856;2024-03-02T08:25:20;12.50;99.90
6333;DHT22;3199;49.102;8.856;2024-03-02T08:27:46;13.10;99.90
6333;DHT22;3199;49.102;8.856;2024-03-02T08:30:12;13.50;99.90
6333;DHT22;3199;49.102;8.856;2024-03-02T08:32:37;13.80;99.60
6333;DHT22;3199;49.102;8.856;2024-03-02T08:35:04;14.10;98.90
6333;DHT22;3199;49.102;8.856;2024-03-02T08:37:30;14.50;98.00
6333;DHT22;3199;49.102;8.856;2024-03-02T08:39:55;14.90;97.30
6333;DHT22;3199;49.102;8.856;2024-03-02T08:42:22;15.20;96.90
6333;DHT22;3199;49.102;8.856;2024-03-02T08:44:47;15.50;96.20
6333;DHT22;3199;49.102;8.856;2024-03-02T08:47:13;15.90;95.60
6333;DHT22;3199;49.102;8.856;2024-03-02T08:49:39;16.20;94.80
6333;DHT22;3199;49.102;8.856;2024-03-02T08:52:04;16.50;93.60
6333;DHT22;3199;49.102;8.856;2024-03-02T08:54:30;16.90;93.10
6333;DHT22;3199;49.102;8.856;2024-03-02T08:56:56;17.10;92.60
6333;DHT22;3199;49.102;8.856;2024-03-02T08:59:22;17.40;92.40
6333;DHT22;3199;49.102;8.856;2024-03-02T09:01:47;17.50;91.60
6333;DHT22;3199;49.102;8.856;2024-03-02T09:04:13;17.70;91.20
6333;DHT22;3199;49.102;8.856;2024-03-02T09:06:38;17.70;89.50
6333;DHT22;3199;49.102;8.856;2024-03-02T09:09:04;17.70;88.40
6333;DHT22;3199;49.102;8.856;2024-03-02T09:11:30;17.50;87.40
6333;DHT22;3199;49.102;8.856;2024-03-02T09:13:55;17.60;91.90
6333;DHT22;3199;49.102;8.856;2024-03-02T09:16:22;17.90;90.10
6333;DHT22;3199;49.102;8.856;2024-03-02T09:18:47;17.80;86.50
6333;DHT22;3199;49.102;8.856;2024-03-02T09:21:13;17.60;86.30
6333;DHT22;3199;49.102;8.856;2024-03-02T09:23:38;17.50;86.60
6333;DHT22;3199;49.102;8.856;2024-03-02T09:26:05;17.30;86.90
6333;DHT22;3199;49.102;8.856;2024-03-02T09:28:31;17.10;86.10
6333;DHT22;3199;49.102;8.856;2024-03-02T09:30:56;17.10;87.00
6333;DHT22;3199;49.102;8.856;2024-03-02T09:33:22;17.00;86.70
6333;DHT22;3199;49.102;8.856;2024-03-02T09:35:47;17.00;88.20
6333;DHT22;3199;49.102;8.856;2024-03-02T09:38:14;17.00;88.20
6333;DHT22;3199;49.102;8.856;2024-03-02T09:40:41;17.20;89.20
6333;DHT22;3199;49.102;8.856;2024-03-02T09:43:07;17.20;86.90
6333;DHT22;3199;49.102;8.856;2024-03-02T09:45:33;17.20;85.60
6333;DHT22;3199;49.102;8.856;2024-03-02T09:47:59;17.10;85.00
6333;DHT22;3199;49.102;8.856;2024-03-02T09:50:25;16.80;86.50
6333;DHT22;3199;49.102;8.856;2024-03-02T09:52:50;16.70;86.00
6333;DHT22;3199;49.102;8.856;2024-03-02T09:55:18;16.60;87.40
6333;DHT22;3199;49.102;8.856;2024-03-02T09:57:45;16.60;86.90
6333;DHT22;3199;49.102;8.856;2024-03-02T10:00:11;16.70;87.80
6333;DHT22;3199;49.102;8.856;2024-03-02T10:02:40;16.80;88.00
6333;DHT22;3199;49.102;8.856;2024-03-02T10:05:07;16.80;87.40
6333;DHT22;3199;49.102;8.856;2024-03-02T10:07:33;17.00;85.40
6333;DHT22;3199;49.102;8.856;2024-03-02T10:10:15;17.00;85.60
6333;DHT22;3199;49.102;8.856;2024-03-02T10:12:41;17.10;84.60
6333;DHT22;3199;49.102;8.856;2024-03-02T10:15:07;17.10;85.50
6333;DHT22;3199;49.102;8.856;2024-03-02T10:17:33;17.10;84.90
6333;DHT22;3199;49.102;8.856;2024-03-02T10:19:58;17.20;83.90
6333;DHT22;3199;49.102;8.856;2024-03-02T10:22:24;17.20;83.40
6333;DHT22;3199;49.102;8.856;2024-03-02T10:24:50;17.20;82.50
6333;DHT22;3199;49.102;8.856;2024-03-02T10:27:17;17.30;83.40
6333;DHT22;3199;49.102;8.856;2024-03-02T10:29:46;17.40;82.80
6333;DHT22;3199;49.102;8.856;2024-03-02T10:32:12;17.40;81.60
6333;DHT22;3199;49.102;8.856;2024-03-02T10:34:40;17.40;82.40
6333;DHT22;3199;49.102;8.856;2024-03-02T10:37:05;17.50;82.20
6333;DHT22;3199;49.102;8.856;2024-03-02T10:39:34;17.60;83.10
6333;DHT22;3199;49.102;8.856;2024-03-02T10:42:02;17.70;80.90
6333;DHT22;3199;49.102;8.856;2024-03-02T10:44:28;17.70;81.10
6333;DHT22;3199;49.102;8.856;2024-03-02T10:46:55;17.70;81.00
6333;DHT22;3199;49.102;8.856;2024-03-02T10:49:22;17.80;81.50
6333;DHT22;3199;49.102;8.856;2024-03-02T10:51:49;17.70;81.60
6333;DHT22;3199;49.102;8.856;2024-03-02T10:54:14;17.60;80.70
6333;DHT22;3199;49.102;8.856;2024-03-02T10:56:41;17.70;80.40
6333;DHT22;3199;49.102;8.856;2024-03-02T10:59:24;17.70;80.00
6333;DHT22;3199;49.102;8.856;2024-03-02T11:01:50;17.70;79.80
6333;DHT22;3199;49.102;8.856;2024-03-02T11:04:18;17.70;80.60
6333;DHT22;3199;49.102;8.856;2024-03-02T11:06:51;17.70;79.10
6333;DHT22;3199;49.102;8.856;2024-03-02T11:09:20;17.50;78.00
6333;DHT22;3199;49.102;8.856;2024-03-02T11:11:53;17.60;77.80
6333;DHT22;3199;49.102;8.856;2024-03-02T11:14:24;17.60;78.80
6333;DHT22;3199;49.102;8.856;2024-03-02T11:16:51;17.70;79.10
6333;DHT22;3199;49.102;8.856;2024-03-02T11:19:17;17.80;79.00
6333;DHT22;3199;49.102;8.856;2024-03-02T11:21:43;17.90;76.30
6333;DHT22;3199;49.102;8.856;2024-03-02T11:26:49;17.90;77.50
6333;DHT22;3199;49.102;8.856;2024-03-02T11:32:06;18.20;76.70
6333;DHT22;3199;49.102;8.856;2024-03-02T11:34:35;18.30;78.10
6333;DHT22;3199;49.102;8.856;2024-03-02T11:37:02;18.40;76.80
6333;DHT22;3199;49.102;8.856;2024-03-02T11:39:28;18.20;77.30
6333;DHT22;3199;49.102;8.856;2024-03-02T11:41:54;18.30;77.40
6333;DHT22;3199;49.102;8.856;2024-03-02T11:44:20;18.50;76.50
6333;DHT22;3199;49.102;8.856;2024-03-02T11:46:58;18.50;74.10
6333;DHT22;3199;49.102;8.856;2024-03-02T11:49:39;18.50;74.10
6333;DHT22;3199;49.102;8.856;2024-03-02T11:52:07;18.50;72.50
6333;DHT22;3199;49.102;8.856;2024-03-02T11:54:33;18.40;72.40
6333;DHT22;3199;49.102;8.856;2024-03-02T11:57:05;18.40;73.70
6333;DHT22;3199;49.102;8.856;2024-03-02T11:59:31;18.50;74.30
6333;DHT22;3199;49.102;8.856;2024-03-02T12:01:58;18.70;72.80
6333;DHT22;3199;49.102;8.856;2024-03-02T12:04:24;18.60;72.00
6333;DHT22;3199;49.102;8.856;2024-03-02T12:06:59;18.50;73.00
6333;DHT22;3199;49.102;8.856;2024-03-02T12:09:26;18.50;72.40
6333;DHT22;3199;49.102;8.856;2024-03-02T12:12:06;18.70;71.30
6333;DHT22;3199;49.102;8.856;2024-03-02T12:14:32;18.80;70.30
6333;DHT22;3199;49.102;8.856;2024-03-02T12:16:58;18.80;69.30
6333;DHT22;3199;49.102;8.856;2024-03-02T12:19:25;18.70;69.90
6333;DHT22;3199;49.102;8.856;2024-03-02T12:21:52;18.80;70.10
6333;DHT22;3199;49.102;8.856;2024-03-02T12:24:18;18.80;69.30
6333;DHT22;3199;49.102;8.856;2024-03-02T12:26:44;19.00;69.30
6333;DHT22;3199;49.102;8.856;2024-03-02T12:29:10;19.00;69.80
6333;DHT22;3199;49.102;8.856;2024-03-02T12:31:35;18.90;70.00
6333;DHT22;3199;49.102;8.856;2024-03-02T12:34:02;18.50;68.10
6333;DHT22;3199;49.102;8.856;2024-03-02T12:36:28;18.20;69.00
6333;DHT22;3199;49.102;8.856;2024-03-02T12:38:54;18.00;69.30
6333;DHT22;3199;49.102;8.856;2024-03-02T12:41:20;18.10;70.50
6333;DHT22;3199;49.102;8.856;2024-03-02T12:43:46;18.10;69.30
6333;DHT22;3199;49.102;8.856;2024-03-02T12:46:11;18.10;69.00
6333;DHT22;3199;49.102;8.856;2024-03-02T12:48:37;18.10;69.60
6333;DHT22;3199;49.102;8.856;2024-03-02T12:51:04;18.00;69.90
6333;DHT22;3199;49.102;8.856;2024-03-02T12:53:30;18.10;70.00
6333;DHT22;3199;49.102;8.856;2024-03-02T12:55:56;18.10;70.20
6333;DHT22;3199;49.102;8.856;2024-03-02T12:58:22;18.30;70.10
6333;DHT22;3199;49.102;8.856;2024-03-02T13:00:48;18.20;68.90
6333;DHT22;3199;49.102;8.856;2024-03-02T13:03:14;18.20;70.40
6333;DHT22;3199;49.102;8.856;2024-03-02T13:05:41;18.20;71.10
6333;DHT22;3199;49.102;8.856;2024-03-02T13:08:06;18.10;70.40
6333;DHT22;3199;49.102;8.856;2024-03-02T13:10:32;18.10;70.30
6333;DHT22;3199;49.102;8.856;2024-03-02T13:12:58;18.20;69.30
6333;DHT22;3199;49.102;8.856;2024-03-02T13:15:23;18.10;69.00
6333;DHT22;3199;49.102;8.856;2024-03-02T13:17:51;17.90;68.40
6333;DHT22;3199;49.102;8.856;2024-03-02T13:20:16;17.70;68.90
6333;DHT22;3199;49.102;8.856;2024-03-02T13:22:43;17.60;70.50
6333;DHT22;3199;49.102;8.856;2024-03-02T13:25:09;17.50;70.00
6333;DHT22;3199;49.102;8.856;2024-03-02T13:27:36;17.50;70.50
6333;DHT22;3199;49.102;8.856;2024-03-02T13:30:03;17.40;70.40
6333;DHT22;3199;49.102;8.856;2024-03-02T13:32:29;17.40;69.80
6333;DHT22;3199;49.102;8.856;2024-03-02T13:34:54;17.20;70.60
6333;DHT22;3199;49.102;8.856;2024-03-02T13:37:23;17.20;71.20
6333;DHT22;3199;49.102;8.856;2024-03-02T13:39:49;17.20;71.90
6333;DHT22;3199;49.102;8.856;2024-03-02T13:42:15;17.20;71.90
6333;DHT22;3199;49.102;8.856;2024-03-02T13:44:44;17.30;72.10
6333;DHT22;3199;49.102;8.856;2024-03-02T13:47:15;17.40;70.10
6333;DHT22;3199;49.102;8.856;2024-03-02T13:49:40;17.30;70.60
6333;DHT22;3199;49.102;8.856;2024-03-02T13:52:10;17.20;70.10
6333;DHT22;3199;49.102;8.856;2024-03-02T13:54:39;17.10;70.40
6333;DHT22;3199;49.102;8.856;2024-03-02T13:57:06;17.20;70.00
6333;DHT22;3199;49.102;8.856;2024-03-02T13:59:33;17.20;70.60
6333;DHT22;3199;49.102;8.856;2024-03-02T14:02:00;17.10;71.10
6333;DHT22;3199;49.102;8.856;2024-03-02T14:04:26;17.10;71.10
6333;DHT22;3199;49.102;8.856;2024-03-02T14:06:51;17.10;70.70
6333;DHT22;3199;49.102;8.856;2024-03-02T14:09:18;17.10;70.20
6333;DHT22;3199;49.102;8.856;2024-03-02T14:11:45;17.10;70.40
6333;DHT22;3199;49.102;8.856;2024-03-02T14:14:11;17.10;70.80
6333;DHT22;3199;49.102;8.856;2024-03-02T14:16:37;17.10;70.60
6333;DHT22;3199;49.102;8.856;2024-03-02T14:19:02;17.00;70.20
6333;DHT22;3199;49.102;8.856;2024-03-02T14:21:30;16.90;70.00
6333;DHT22;3199;49.102;8.856;2024-03-02T14:23:55;16.80;69.80
6333;DHT22;3199;49.102;8.856;2024-03-02T14:26:21;16.70;70.60
6333;DHT22;3199;49.102;8.856;2024-03-02T14:28:46;16.60;71.40
6333;DHT22;3199;49.102;8.856;2024-03-02T14:31:12;16.50;72.10
6333;DHT22;3199;49.102;8.856;2024-03-02T14:33:38;16.40;73.00
6333;DHT22;3199;49.102;8.856;2024-03-02T14:36:04;16.30;73.30
6333;DHT22;3199;49.102;8.856;2024-03-02T14:38:30;16.30;74.10
6333;DHT22;3199;49.102;8.856;2024-03-02T14:40:56;16.20;74.60
6333;DHT22;3199;49.102;8.856;2024-03-02T14:43:21;16.30;75.30
6333;DHT22;3199;49.102;8.856;2024-03-02T14:45:47;16.30;74.80
6333;DHT22;3199;49.102;8.856;2024-03-02T14:48:13;16.30;74.70
6333;DHT22;3199;49.102;8.856;2024-03-02T14:50:39;16.30;73.90
6333;DHT22;3199;49.102;8.856;2024-03-02T14:53:04;16.30;73.90
6333;DHT22;3199;49.102;8.856;2024-03-02T14:55:32;16.30;74.20
6333;DHT22;3199;49.102;8.856;2024-03-02T14:57:59;16.30;73.30
6333;DHT22;3199;49.102;8.856;2024-03-02T15:00:25;16.30;73.90
6333;DHT22;3199;49.102;8.856;2024-03-02T15:02:50;16.30;73.40
6333;DHT22;3199;49.102;8.856;2024-03-02T15:05:16;16.20;72.80
6333;DHT22;3199;49.102;8.856;2024-03-02T15:07:43;16.10;72.70
6333;DHT22;3199;49.102;8.856;2024-03-02T15:10:08;16.10;73.40
6333;DHT22;3199;49.102;8.856;2024-03-02T15:12:34;16.10;74.30
6333;DHT22;3199;49.102;8.856;2024-03-02T15:15:00;16.10;74.50
6333;DHT22;3199;49.102;8.856;2024-03-02T15:17:25;16.10;73.80
6333;DHT22;3199;49.102;8.856;2024-03-02T15:19:51;16.00;73.70
6333;DHT22;3199;49.102;8.856;2024-03-02T15:22:17;16.00;74.30
6333;DHT22;3199;49.102;8.856;2024-03-02T15:24:42;15.90;73.90
6333;DHT22;3199;49.102;8.856;2024-03-02T15:27:08;15.90;74.00
6333;DHT22;3199;49.102;8.856;2024-03-02T15:29:34;15.80;73.50
6333;DHT22;3199;49.102;8.856;2024-03-02T15:32:01;15.80;73.90
6333;DHT22;3199;49.102;8.856;2024-03-02T15:34:28;15.70;74.60
6333;DHT22;3199;49.102;8.856;2024-03-02T15:36:54;15.60;75.30
6333;DHT22;3199;49.102;8.856;2024-03-02T15:39:20;15.60;74.90
6333;DHT22;3199;49.102;8.856;2024-03-02T15:41:45;15.50;74.90
6333;DHT22;3199;49.102;8.856;2024-03-02T15:44:11;15.40;74.50
6333;DHT22;3199;49.102;8.856;2024-03-02T15:46:37;15.30;74.60
6333;DHT22;3199;49.102;8.856;2024-03-02T15:49:02;15.30;74.90
6333;DHT22;3199;49.102;8.856;2024-03-02T15:51:30;15.30;75.10
6333;DHT22;3199;49.102;8.856;2024-03-02T15:53:56;15.20;75.10
6333;DHT22;3199;49.102;8.856;2024-03-02T15:56:21;15.20;75.40
6333;DHT22;3199;49.102;8.856;2024-03-02T15:58:47;15.20;75.50
6333;DHT22;3199;49.102;8.856;2024-03-02T16:01:13;15.20;75.60
6333;DHT22;3199;49.102;8.856;2024-03-02T16:03:38;15.10;75.10
6333;DHT22;3199;49.102;8.856;2024-03-02T16:06:04;15.10;75.10
6333;DHT22;3199;49.102;8.856;2024-03-02T16:08:30;15.10;75.40
6333;DHT22;3199;49.102;8.856;2024-03-02T16:10:55;15.00;75.50
6333;DHT22;3199;49.102;8.856;2024-03-02T16:13:22;15.00;75.90
6333;DHT22;3199;49.102;8.856;2024-03-02T16:15:48;15.00;76.00